Time;durP1;ratioP1;P1;durP2;ratioP2;P2;SDS_P1;SDS_P2;PMS_P1;PMS_P2;Temp;Humidity;BMP_temperature;BMP_pressure;BME280_temperature;BME280_humidity;BME280_pressure;Samples;Min_cycle;Max_cycle;Signal;HPM_P1;HPM_P2
2024/01/24 00:00:59;;;;;;;29.60;17.70;;;;;;;-8.49;100.00;140220.66;107048;1266;25417;-63
2024/01/24 00:03:45;;;;;;;29.80;18.00;;;;;;;-8.47;100.00;140224.09;107097;1256;23794;-62
2024/01/24 00:06:31;;;;;;;35.50;19.40;;;;;;;-8.47;100.00;140225.84;107035;1266;25376;-59
2024/01/24 00:09:17;;;;;;;31.70;19.10;;;;;;;-8.44;100.00;140231.52;107200;1263;25366;-60
2024/01/24 00:12:02;;;;;;;31.50;18.50;;;;;;;-8.44;100.00;140231.75;107083;1264;25481;-59
2024/01/24 00:14:48;;;;;;;32.20;19.20;;;;;;;-8.46;100.00;140226.81;107154;1266;25385;-59
2024/01/24 00:17:34;;;;;;;31.00;19.20;;;;;;;-8.48;100.00;140223.59;107121;1267;25432;-59
2024/01/24 00:20:19;;;;;;;31.80;18.70;;;;;;;-8.47;100.00;140224.84;107047;1266;25347;-61
2024/01/24 00:23:05;;;;;;;33.40;20.20;;;;;;;-8.45;100.00;140229.78;107150;1266;25340;-62
2024/01/24 00:25:52;;;;;;;35.70;19.60;;;;;;;-8.45;100.00;140230.02;107154;1263;25350;-61
2024/01/24 00:28:37;;;;;;;34.70;19.80;;;;;;;-8.49;100.00;140220.91;107099;1264;25488;-62
2024/01/24 00:31:23;;;;;;;34.50;19.70;;;;;;;-8.51;100.00;140216.95;107098;1257;25360;-58
2024/01/24 00:34:08;;;;;;;31.20;18.70;;;;;;;-8.50;100.00;140217.95;107134;1259;25344;-59
2024/01/24 00:36:55;;;;;;;34.80;19.10;;;;;;;-8.46;100.00;140228.28;107087;1264;25379;-60
2024/01/24 00:39:40;;;;;;;34.00;18.70;;;;;;;-8.45;100.00;140231.50;107109;1255;25456;-61
2024/01/24 00:42:26;;;;;;;34.30;19.60;;;;;;;-8.46;100.00;140228.28;107114;1267;23306;-59
2024/01/24 00:45:12;;;;;;;33.30;20.50;;;;;;;-8.46;100.00;140227.31;107003;1259;25338;-60
2024/01/24 00:47:57;;;;;;;30.50;18.40;;;;;;;-8.48;100.00;140222.13;107105;1266;25436;-59
2024/01/24 00:50:43;;;;;;;33.90;19.50;;;;;;;-8.48;100.00;140222.13;107104;1264;25347;-60
2024/01/24 00:53:30;;;;;;;31.90;18.80;;;;;;;-8.47;100.00;140225.59;107107;1262;25411;-59
2024/01/24 00:56:15;;;;;;;31.80;20.40;;;;;;;-8.45;100.00;140230.78;107078;1264;26020;-58
2024/01/24 00:59:00;;;;;;;32.30;19.40;;;;;;;-8.42;100.00;140237.92;107159;1266;25378;-59
2024/01/24 01:01:46;;;;;;;32.20;19.30;;;;;;;-8.41;100.00;140238.66;107200;1263;25452;-59
2024/01/24 01:04:31;;;;;;;32.70;18.50;;;;;;;-8.42;100.00;140238.16;107171;1264;25399;-62
2024/01/24 01:07:17;;;;;;;29.30;18.20;;;;;;;-8.42;100.00;140237.41;107029;1264;25399;-59
2024/01/24 01:10:03;;;;;;;29.80;18.90;;;;;;;-8.40;100.00;140241.13;107070;1264;25417;-60
2024/01/24 01:12:48;;;;;;;30.60;18.90;;;;;;;-8.39;100.00;140244.33;107111;1256;25348;-60
2024/01/24 01:15:34;;;;;;;33.50;20.10;;;;;;;-8.41;100.00;140241.13;107116;1266;25490;-60
2024/01/24 01:18:20;;;;;;;33.90;18.90;;;;;;;-8.41;100.00;140241.13;107154;1267;23887;-62
2024/01/24 01:21:06;;;;;;;28.10;18.10;;;;;;;-8.43;100.00;140234.72;107070;1266;25360;-60
2024/01/24 01:23:52;;;;;;;29.30;17.70;;;;;;;-8.46;100.00;140228.28;107027;1267;25363;-58
2024/01/24 01:26:37;;;;;;;29.70;18.50;;;;;;;-8.39;100.00;140244.56;107146;1266;25515;-59
2024/01/24 01:29:23;;;;;;;34.30;20.40;;;;;;;-8.36;100.00;140252.42;107188;1261;25507;-62
2024/01/24 01:32:09;;;;;;;30.60;19.60;;;;;;;-8.37;100.00;140249.70;107091;1266;25368;-63
2024/01/24 01:34:55;;;;;;;31.40;19.10;;;;;;;-8.36;100.00;140251.42;107095;1267;25353;-58
2024/01/24 01:37:40;;;;;;;35.00;19.90;;;;;;;-8.37;100.00;140249.95;107133;1256;25388;-60
2024/01/24 01:40:26;;;;;;;30.20;19.50;;;;;;;-8.37;100.00;140250.45;107177;1267;23795;-59
2024/01/24 01:43:16;;;;;;;33.60;19.60;;;;;;;-8.37;100.00;140250.95;107037;1270;25348;-60
2024/01/24 01:46:16;;;;;;;33.60;20.10;;;;;;;-8.39;100.00;140246.28;107102;1264;25344;-58
2024/01/24 01:49:02;;;;;;;36.10;19.20;;;;;;;-8.38;100.00;140248.00;107054;1256;22532;-64
2024/01/24 01:51:51;;;;;;;32.20;19.30;;;;;;;-8.36;100.00;140252.91;107050;1266;25407;-59
2024/01/24 01:54:40;;;;;;;32.20;19.50;;;;;;;-8.34;100.00;140256.13;107109;1263;23740;-61
2024/01/24 01:57:25;;;;;;;31.00;18.30;;;;;;;-8.31;100.00;140265.25;107106;1267;25344;-56
2024/01/24 02:00:19;;;;;;;30.60;19.30;;;;;;;-8.30;100.00;140266.97;107162;1259;25484;-60
2024/01/24 02:03:06;;;;;;;31.50;19.50;;;;;;;-8.35;100.00;140255.63;107081;1267;25436;-59
2024/01/24 02:05:51;;;;;;;35.30;20.00;;;;;;;-8.40;100.00;140243.83;107133;1255;25408;-59
2024/01/24 02:08:39;;;;;;;34.30;20.90;;;;;;;-8.41;100.00;140239.91;107159;1256;23328;-58
2024/01/24 02:11:25;;;;;;;34.80;20.40;;;;;;;-8.38;100.00;140246.03;107120;1264;25344;-61
2024/01/24 02:14:12;;;;;;;31.70;19.10;;;;;;;-8.33;100.00;140260.55;107150;1260;25471;-61
2024/01/24 02:16:57;;;;;;;36.30;20.90;;;;;;;-8.26;100.00;140275.84;107114;1260;25439;-60
2024/01/24 02:19:43;;;;;;;34.10;21.50;;;;;;;-8.24;100.00;140282.03;107114;1262;25564;-58
2024/01/24 02:22:29;;;;;;;35.80;20.80;;;;;;;-8.21;100.00;140287.72;107047;1267;25485;-64
2024/01/24 02:25:14;;;;;;;35.80;20.70;;;;;;;-8.28;100.00;140271.41;107206;1256;25345;-60
2024/01/24 02:28:00;;;;;;;39.50;22.60;;;;;;;-8.29;100.00;140269.20;107113;1266;25363;-59
2024/01/24 02:30:46;;;;;;;33.90;21.00;;;;;;;-8.22;100.00;140286.20;107064;1266;25445;-61
2024/01/24 02:33:32;;;;;;;37.30;21.40;;;;;;;-8.20;100.00;140292.13;107129;1266;25619;-57
2024/01/24 02:36:18;;;;;;;38.00;20.50;;;;;;;-8.22;100.00;140285.47;107116;1256;25490;-57
2024/01/24 02:39:03;;;;;;;41.50;24.10;;;;;;;-8.29;100.00;140269.45;107145;1255;22550;-58
2024/01/24 02:41:49;;;;;;;39.60;22.70;;;;;;;-8.29;100.00;140269.45;107096;1266;25376;-60
2024/01/24 02:44:35;;;;;;;38.60;22.20;;;;;;;-8.32;100.00;140263.03;107099;1260;25519;-59
2024/01/24 02:47:22;;;;;;;38.90;21.40;;;;;;;-8.30;100.00;140267.00;107068;1266;25344;-60
2024/01/24 02:50:08;;;;;;;41.70;24.10;;;;;;;-8.29;100.00;140269.70;107117;1263;25350;-55
2024/01/24 02:52:56;;;;;;;42.90;24.30;;;;;;;-8.24;100.00;140281.05;107082;1266;25354;-54
2024/01/24 02:55:41;;;;;;;45.20;23.30;;;;;;;-8.20;100.00;140290.91;107027;1263;25461;-58
2024/01/24 02:58:26;;;;;;;44.60;23.00;;;;;;;-8.17;100.00;140298.55;107100;1266;23258;-58
2024/01/24 03:01:12;;;;;;;38.70;24.00;;;;;;;-8.15;100.00;140304.47;107188;1263;25369;-61
2024/01/24 03:03:58;;;;;;;42.10;22.80;;;;;;;-8.12;100.00;140310.88;107125;1265;25380;-60
2024/01/24 03:06:44;;;;;;;44.90;24.80;;;;;;;-8.08;100.00;140321.22;107184;1265;25344;-61
2024/01/24 03:09:30;;;;;;;41.10;23.60;;;;;;;-8.06;100.00;140324.95;107150;1264;25353;-59
2024/01/24 03:12:15;;;;;;;45.70;25.00;;;;;;;-8.14;100.00;140306.42;107135;1266;25343;-60
2024/01/24 03:15:01;;;;;;;46.10;24.60;;;;;;;-8.16;100.00;140301.28;107162;1256;25363;-54
2024/01/24 03:17:46;;;;;;;43.50;23.70;;;;;;;-8.14;100.00;140306.92;107193;1266;22541;-61
2024/01/24 03:20:32;;;;;;;44.90;23.70;;;;;;;-8.10;100.00;140316.05;107097;1266;25581;-55
2024/01/24 03:23:17;;;;;;;48.60;26.50;;;;;;;-8.05;100.00;140327.41;107033;1263;25418;-58
2024/01/24 03:26:03;;;;;;;53.80;27.20;;;;;;;-8.01;100.00;140336.30;107092;1256;25553;-54
2024/01/24 03:28:49;;;;;;;48.90;26.20;;;;;;;-7.98;100.00;140342.47;107151;1265;25348;-58
2024/01/24 03:31:34;;;;;;;48.30;25.80;;;;;;;-7.96;100.00;140349.13;107138;1267;25471;-58
2024/01/24 03:34:20;;;;;;;45.90;24.90;;;;;;;-7.95;100.00;140351.84;107129;1252;25413;-63
2024/01/24 03:37:06;;;;;;;53.20;25.80;;;;;;;-7.92;100.00;140358.00;107005;1260;25414;-60
2024/01/24 03:39:52;;;;;;;47.60;26.40;;;;;;;-7.89;100.00;140366.66;106973;1264;25344;-58
2024/01/24 03:42:38;;;;;;;45.50;24.30;;;;;;;-7.87;100.00;140369.59;107025;1264;25395;-60
2024/01/24 03:45:24;;;;;;;46.70;25.60;;;;;;;-7.87;100.00;140370.34;107164;1257;25375;-60
2024/01/24 03:48:09;;;;;;;47.20;25.00;;;;;;;-7.87;100.00;140370.09;107100;1257;25395;-61
2024/01/24 03:50:55;;;;;;;47.30;26.80;;;;;;;-7.87;100.00;140369.59;107189;1262;22536;-59
2024/01/24 03:53:40;;;;;;;50.50;26.50;;;;;;;-7.87;100.00;140369.63;107084;1263;25415;-61
2024/01/24 03:56:26;;;;;;;49.50;26.40;;;;;;;-7.85;100.00;140374.30;107090;1254;25631;-61
2024/01/24 03:59:11;;;;;;;46.20;25.20;;;;;;;-7.86;100.00;140372.83;107133;1267;25363;-60
2024/01/24 04:01:57;;;;;;;48.70;27.10;;;;;;;-7.89;100.00;140366.16;107186;1266;25372;-61
2024/01/24 04:04:43;;;;;;;46.00;27.00;;;;;;;-7.90;100.00;140363.44;107079;1266;25421;-62
2024/01/24 04:07:29;;;;;;;46.50;27.40;;;;;;;-7.88;100.00;140368.13;107208;1266;25424;-61
2024/01/24 04:10:16;;;;;;;50.20;26.00;;;;;;;-7.88;100.00;140369.59;107011;1266;25466;-64
2024/01/24 04:13:01;;;;;;;46.90;26.00;;;;;;;-7.87;100.00;140369.59;106920;1266;25344;-62
2024/01/24 04:15:47;;;;;;;48.70;27.90;;;;;;;-7.92;100.00;140358.00;107072;1265;25469;-56
2024/01/24 04:18:33;;;;;;;54.00;26.80;;;;;;;-7.91;100.00;140359.70;107126;1267;25415;-64
2024/01/24 04:21:19;;;;;;;49.90;27.70;;;;;;;-7.88;100.00;140367.13;107076;1256;25424;-59
2024/01/24 04:24:06;;;;;;;49.10;27.00;;;;;;;-7.85;100.00;140376.03;107149;1259;25369;-61
2024/01/24 04:26:51;;;;;;;49.30;27.60;;;;;;;-7.79;100.00;140389.09;107046;1263;25507;-64
2024/01/24 04:29:37;;;;;;;47.90;27.10;;;;;;;-7.75;100.00;140400.45;107008;1266;25382;-62
2024/01/24 04:32:22;;;;;;;54.20;28.50;;;;;;;-7.73;100.00;140403.17;107151;1265;25372;-60
2024/01/24 04:35:08;;;;;;;49.10;27.40;;;;;;;-7.74;100.00;140401.17;107152;1267;25423;-64
2024/01/24 04:37:54;;;;;;;49.70;28.00;;;;;;;-7.74;100.00;140401.45;107143;1267;25455;-61
2024/01/24 04:40:39;;;;;;;47.30;26.90;;;;;;;-7.72;100.00;140407.36;107106;1266;25343;-62
2024/01/24 04:43:25;;;;;;;45.80;26.40;;;;;;;-7.69;100.00;140415.50;107150;1263;25409;-58
2024/01/24 04:46:14;;;;;;;50.40;28.30;;;;;;;-7.70;100.00;140412.30;106931;1266;25362;-58
2024/01/24 04:49:00;;;;;;;46.00;26.50;;;;;;;-7.75;100.00;140400.22;107003;1272;25514;-64
2024/01/24 04:51:46;;;;;;;52.20;27.70;;;;;;;-7.77;100.00;140393.78;106981;1265;25578;-57
2024/01/24 04:54:35;;;;;;;53.90;26.30;;;;;;;-7.80;100.00;140386.16;106985;1266;25410;-63
2024/01/24 04:57:21;;;;;;;50.30;26.30;;;;;;;-7.80;100.00;140387.13;106961;1266;25424;-60
2024/01/24 05:00:08;;;;;;;48.20;24.70;;;;;;;-7.80;100.00;140388.34;106912;1265;25498;-61
2024/01/24 05:02:54;;;;;;;50.20;26.10;;;;;;;-7.83;100.00;140379.00;106986;1266;25476;-59
2024/01/24 05:05:40;;;;;;;46.50;25.20;;;;;;;-7.87;100.00;140371.33;106998;1263;25559;-60
2024/01/24 05:08:26;;;;;;;44.50;26.20;;;;;;;-7.92;100.00;140358.00;107049;1263;25372;-61
2024/01/24 05:11:12;;;;;;;41.30;23.80;;;;;;;-7.95;100.00;140349.61;107011;1265;25459;-63
2024/01/24 05:14:00;;;;;;;42.90;23.30;;;;;;;-7.98;100.00;140344.44;107023;1264;26500;-62
2024/01/24 05:16:45;;;;;;;43.30;23.90;;;;;;;-8.02;100.00;140334.56;107042;1269;25343;-61
2024/01/24 05:19:32;;;;;;;52.90;26.00;;;;;;;-8.05;100.00;140326.66;107029;1264;25369;-59
2024/01/24 05:22:18;;;;;;;44.10;24.90;;;;;;;-8.09;100.00;140319.28;106993;1264;25335;-55
2024/01/24 05:25:05;;;;;;;46.20;24.60;;;;;;;-8.09;100.00;140317.80;107010;1266;25344;-59
2024/01/24 05:27:50;;;;;;;43.90;25.20;;;;;;;-8.11;100.00;140313.61;107014;1264;25561;-61
2024/01/24 05:30:37;;;;;;;45.40;25.10;;;;;;;-8.09;100.00;140316.30;107008;1263;25340;-58
2024/01/24 05:33:24;;;;;;;45.50;26.30;;;;;;;-8.02;100.00;140334.80;106936;1264;104436;-59
2024/01/24 05:36:10;;;;;;;47.90;24.70;;;;;;;-7.98;100.00;140344.44;107114;1261;25375;-64
2024/01/24 05:38:55;;;;;;;39.60;23.40;;;;;;;-7.98;100.00;140342.95;107126;1263;26503;-64
2024/01/24 05:41:41;;;;;;;48.20;25.40;;;;;;;-7.99;100.00;140341.23;107062;1265;25443;-60
2024/01/24 05:44:26;;;;;;;45.80;23.70;;;;;;;-8.04;100.00;140328.89;107113;1266;25429;-62
2024/01/24 05:47:12;;;;;;;44.10;23.50;;;;;;;-8.02;100.00;140332.34;107118;1258;25382;-62
2024/01/24 05:49:58;;;;;;;44.50;22.90;;;;;;;-7.99;100.00;140340.48;107091;1263;25337;-63
2024/01/24 05:52:44;;;;;;;41.70;23.90;;;;;;;-7.95;100.00;140350.36;107138;1264;25407;-65
2024/01/24 05:55:30;;;;;;;44.30;23.10;;;;;;;-7.93;100.00;140356.03;107093;1267;25372;-59
2024/01/24 05:58:17;;;;;;;50.50;24.20;;;;;;;-7.90;100.00;140363.67;107063;1264;25355;-60
2024/01/24 06:01:05;;;;;;;47.30;24.60;;;;;;;-7.87;100.00;140371.58;107078;1264;25344;-64
2024/01/24 06:03:51;;;;;;;50.40;24.00;;;;;;;-7.86;100.00;140372.58;107115;1266;25372;-59
2024/01/24 06:06:37;;;;;;;48.50;24.00;;;;;;;-7.83;100.00;140379.72;107087;1264;23305;-59
2024/01/24 06:09:23;;;;;;;49.40;24.20;;;;;;;-7.76;100.00;140396.02;107141;1264;24390;-59
2024/01/24 06:12:09;;;;;;;42.80;22.30;;;;;;;-7.77;100.00;140395.52;107099;1269;25338;-62
2024/01/24 06:14:55;;;;;;;43.00;23.30;;;;;;;-7.80;100.00;140386.13;107213;1256;25427;-62
2024/01/24 06:17:40;;;;;;;45.20;22.90;;;;;;;-7.81;100.00;140383.94;106897;1267;25417;-59
2024/01/24 06:20:26;;;;;;;43.10;22.20;;;;;;;-7.78;100.00;140392.31;107159;1265;25518;-61
2024/01/24 06:23:13;;;;;;;45.90;23.50;;;;;;;-7.71;100.00;140410.83;107098;1256;25528;-59
2024/01/24 06:25:58;;;;;;;46.30;24.50;;;;;;;-7.65;100.00;140423.66;107117;1256;25532;-60
2024/01/24 06:28:44;;;;;;;41.60;22.60;;;;;;;-7.59;100.00;140437.47;107118;1257;25369;-60
2024/01/24 06:31:30;;;;;;;48.00;23.80;;;;;;;-7.60;100.00;140434.77;107146;1269;25403;-60
2024/01/24 06:34:15;;;;;;;45.60;23.70;;;;;;;-7.58;100.00;140439.20;107067;1266;25537;-59
2024/01/24 06:37:01;;;;;;;42.20;22.40;;;;;;;-7.54;100.00;140449.80;106976;1256;25461;-62
2024/01/24 06:39:46;;;;;;;50.80;26.70;;;;;;;-7.48;100.00;140464.88;107020;1266;23666;-60
2024/01/24 06:42:33;;;;;;;49.90;25.30;;;;;;;-7.42;100.00;140479.17;107016;1266;25379;-62
2024/01/24 06:45:19;;;;;;;59.00;26.20;;;;;;;-7.39;100.00;140486.34;107019;1266;25439;-59
2024/01/24 06:48:05;;;;;;;57.00;30.40;;;;;;;-7.36;100.00;140494.25;107189;1264;25497;-57
2024/01/24 06:50:53;;;;;;;54.70;28.90;;;;;;;-7.32;100.00;140502.38;106979;1263;25482;-62
2024/01/24 06:53:39;;;;;;;57.70;29.50;;;;;;;-7.29;100.00;140511.53;106997;1263;25349;-61
2024/01/24 06:56:25;;;;;;;71.20;34.30;;;;;;;-7.24;100.00;140522.66;106995;1266;25469;-63
2024/01/24 06:59:11;;;;;;;64.30;33.20;;;;;;;-7.18;100.00;140535.22;107029;1266;25424;-58
2024/01/24 07:01:57;;;;;;;67.60;33.50;;;;;;;-7.16;100.00;140541.91;106941;1266;25372;-62
2024/01/24 07:04:43;;;;;;;74.80;36.30;;;;;;;-7.18;100.00;140536.47;107122;1257;23497;-59
2024/01/24 07:07:30;;;;;;;67.10;34.30;;;;;;;-7.21;100.00;140529.78;107051;1261;25363;-60
2024/01/24 07:10:15;;;;;;;73.60;34.40;;;;;;;-7.23;100.00;140526.83;106980;1260;25338;-62
2024/01/24 07:13:01;;;;;;;59.40;27.80;;;;;;;-7.20;100.00;140531.28;106980;1269;25395;-59
2024/01/24 07:15:46;;;;;;;52.00;27.60;;;;;;;-7.16;100.00;140541.41;106982;1275;25424;-60
2024/01/24 07:18:32;;;;;;;54.30;26.60;;;;;;;-7.16;100.00;140541.66;106966;1275;25359;-62
2024/01/24 07:21:18;;;;;;;61.70;28.60;;;;;;;-7.16;100.00;140541.89;106945;1273;25373;-62
2024/01/24 07:24:04;;;;;;;47.40;25.30;;;;;;;-7.15;100.00;140544.88;106995;1260;25359;-61
2024/01/24 07:26:50;;;;;;;53.70;28.00;;;;;;;-7.11;100.00;140553.00;107087;1266;25350;-58
2024/01/24 07:29:35;;;;;;;53.40;28.70;;;;;;;-7.08;100.00;140561.41;107092;1266;25468;-60
2024/01/24 07:32:21;;;;;;;58.00;28.10;;;;;;;-7.02;100.00;140574.25;107082;1267;22987;-63
2024/01/24 07:35:09;;;;;;;51.10;26.80;;;;;;;-6.98;100.00;140584.88;107342;1254;25395;-58
2024/01/24 07:37:54;;;;;;;63.90;30.20;;;;;;;-6.95;100.00;140591.53;107043;1266;25411;-66
2024/01/24 07:40:40;;;;;;;54.20;29.50;;;;;;;-6.94;100.00;140595.73;107018;1268;25372;-65
2024/01/24 07:43:25;;;;;;;60.60;28.30;;;;;;;-6.89;100.00;140607.83;107069;1266;25883;-61
2024/01/24 07:46:11;;;;;;;56.40;29.40;;;;;;;-6.84;100.00;140620.19;107145;1266;25384;-60
2024/01/24 07:48:57;;;;;;;53.80;28.80;;;;;;;-6.83;100.00;140621.91;107020;1266;26006;-59
2024/01/24 07:51:46;;;;;;;48.40;27.80;;;;;;;-6.87;100.00;140611.55;107098;1255;25378;-63
2024/01/24 07:54:32;;;;;;;53.90;27.80;;;;;;;-6.90;100.00;140603.39;107060;1267;25344;-63
2024/01/24 07:57:18;;;;;;;55.20;28.50;;;;;;;-6.89;100.00;140605.84;107576;1263;25437;-64
2024/01/24 08:00:06;;;;;;;45.50;24.40;;;;;;;-6.87;100.00;140612.05;108282;1260;23393;-65
2024/01/24 08:02:52;;;;;;;48.10;24.20;;;;;;;-6.86;100.00;140615.73;108352;1263;23142;-65
2024/01/24 08:05:37;;;;;;;45.60;24.80;;;;;;;-6.78;100.00;140633.78;107586;1260;25359;-65
2024/01/24 08:08:22;;;;;;;48.70;25.90;;;;;;;-6.72;100.00;140647.38;107422;1259;22498;-66
2024/01/24 08:11:08;;;;;;;51.60;26.80;;;;;;;-6.69;100.00;140655.23;108952;1265;22519;-64
2024/01/24 08:13:54;;;;;;;49.30;26.80;;;;;;;-6.68;100.00;140656.50;107830;1263;22519;-65
2024/01/24 08:16:55;;;;;;;47.50;26.60;;;;;;;-6.67;100.00;140658.47;107358;1259;25436;-66
2024/01/24 08:19:41;;;;;;;53.20;29.80;;;;;;;-6.59;100.00;140678.75;107637;1262;25607;-65
2024/01/24 08:22:28;;;;;;;59.20;29.90;;;;;;;-6.54;100.00;140692.33;107953;1265;23864;-65
2024/01/24 08:25:14;;;;;;;52.20;28.50;;;;;;;-6.50;100.00;140699.48;107692;1266;25352;-67
2024/01/24 08:27:59;;;;;;;57.00;28.40;;;;;;;-6.46;100.00;140710.59;107377;1263;25348;-65
2024/01/24 08:30:46;;;;;;;52.30;29.30;;;;;;;-6.44;100.00;140716.03;107240;1260;25583;-62
2024/01/24 08:33:32;;;;;;;47.30;27.20;;;;;;;-6.42;100.00;140720.73;107241;1260;25372;-64
2024/01/24 08:36:18;;;;;;;48.60;28.00;;;;;;;-6.43;100.00;140718.03;107236;1262;25440;-65
2024/01/24 08:39:06;;;;;;;58.10;31.10;;;;;;;-6.40;100.00;140725.66;107295;1260;22532;-64
2024/01/24 08:41:52;;;;;;;55.30;28.20;;;;;;;-6.41;100.00;140721.98;107202;1260;25356;-66
2024/01/24 08:44:37;;;;;;;57.30;29.60;;;;;;;-6.42;100.00;140721.97;107338;1260;25338;-65
2024/01/24 08:47:22;;;;;;;49.70;27.80;;;;;;;-6.40;100.00;140725.67;107720;1259;22537;-65
2024/01/24 08:50:09;;;;;;;65.40;31.40;;;;;;;-6.40;100.00;140726.91;107511;1266;23264;-68
2024/01/24 08:52:55;;;;;;;61.20;30.90;;;;;;;-6.38;100.00;140730.13;107877;1264;22526;-67
2024/01/24 08:55:41;;;;;;;70.70;33.40;;;;;;;-6.37;100.00;140732.86;107503;1261;25439;-63
2024/01/24 08:58:27;;;;;;;56.60;28.60;;;;;;;-6.35;100.00;140737.05;107802;1260;22590;-65
2024/01/24 09:01:13;;;;;;;63.90;30.00;;;;;;;-6.38;100.00;140731.38;107739;1259;22567;-68
2024/01/24 09:03:59;;;;;;;59.40;31.10;;;;;;;-6.38;100.00;140731.84;107350;1254;25383;-65
2024/01/24 09:06:45;;;;;;;59.30;31.80;;;;;;;-6.37;100.00;140732.34;107401;1259;23302;-65
2024/01/24 09:09:43;;;;;;;59.40;32.50;;;;;;;-6.34;100.00;140739.28;107465;1262;24136;-65
2024/01/24 09:12:55;;;;;;;54.30;30.70;;;;;;;-6.32;100.00;140743.97;107398;1267;22633;-64
2024/01/24 09:15:41;;;;;;;59.30;31.30;;;;;;;-6.34;100.00;140740.00;107005;1266;25539;-64
2024/01/24 09:18:28;;;;;;;54.00;29.70;;;;;;;-6.34;100.00;140740.00;107623;1262;24005;-64
2024/01/24 09:21:23;;;;;;;59.20;33.30;;;;;;;-6.32;100.00;140745.69;107419;1265;25373;-64
2024/01/24 09:24:12;;;;;;;56.10;29.80;;;;;;;-6.25;100.00;140761.53;107385;1263;25475;-63
2024/01/24 09:26:59;;;;;;;55.80;30.20;;;;;;;-6.22;100.00;140768.69;106895;1275;25355;-65
2024/01/24 09:29:53;;;;;;;54.00;29.10;;;;;;;-6.20;100.00;140772.16;107259;1269;25354;-64
2024/01/24 09:32:42;;;;;;;56.50;30.50;;;;;;;-6.20;100.00;140773.63;108004;1265;22692;-64
2024/01/24 09:35:30;;;;;;;56.70;28.50;;;;;;;-6.19;100.00;140775.61;107086;1266;22630;-64
2024/01/24 09:38:16;;;;;;;61.20;32.20;;;;;;;-6.11;100.00;140795.61;107163;1266;25373;-65
2024/01/24 09:41:11;;;;;;;56.70;30.60;;;;;;;-6.03;100.00;140814.64;107844;1262;22655;-65
2024/01/24 09:44:04;;;;;;;61.20;30.90;;;;;;;-5.94;100.00;140837.38;107614;1262;22934;-66
2024/01/24 09:46:52;;;;;;;60.80;30.10;;;;;;;-5.85;100.00;140856.14;107242;1269;22582;-64
2024/01/24 09:49:38;;;;;;;50.60;27.90;;;;;;;-5.81;100.00;140868.52;107103;1260;23209;-64
2024/01/24 09:52:26;;;;;;;52.20;29.60;;;;;;;-5.76;100.00;140879.38;107629;1260;25338;-67
2024/01/24 09:55:15;;;;;;;59.00;31.30;;;;;;;-5.76;100.00;140879.88;107453;1260;25375;-65
2024/01/24 09:58:01;;;;;;;56.80;30.70;;;;;;;-5.70;100.00;140894.70;107069;1260;22594;-64
2024/01/24 10:00:52;;;;;;;62.10;32.80;;;;;;;-5.60;100.00;140918.45;107125;1260;25366;-63
2024/01/24 10:03:39;;;;;;;64.50;33.40;;;;;;;-5.53;100.00;140934.53;107023;1260;25421;-67
2024/01/24 10:06:26;;;;;;;65.70;32.40;;;;;;;-5.55;100.00;140929.83;107123;1256;22523;-65
2024/01/24 10:09:12;;;;;;;59.10;32.10;;;;;;;-5.56;100.00;140928.34;107462;1263;22533;-63
2024/01/24 10:11:58;;;;;;;60.30;34.10;;;;;;;-5.51;100.00;140939.72;107284;1267;22526;-63
2024/01/24 10:14:44;;;;;;;62.40;33.50;;;;;;;-5.44;100.00;140956.78;107311;1260;25365;-66
2024/01/24 10:17:31;;;;;;;59.80;32.50;;;;;;;-5.39;100.00;140968.39;107282;1263;24205;-65
2024/01/24 10:20:19;;;;;;;65.90;35.60;;;;;;;-5.45;100.00;140954.30;107239;1259;25423;-65
2024/01/24 10:23:09;;;;;;;70.60;37.10;;;;;;;-5.50;100.00;140942.19;107421;1257;26497;-66
2024/01/24 10:25:54;;;;;;;66.60;36.80;;;;;;;-5.48;100.00;140947.66;107484;1263;22545;-65
2024/01/24 10:28:46;;;;;;;69.60;36.00;;;;;;;-5.45;100.00;140955.80;107578;1259;25413;-63
2024/01/24 10:31:31;;;;;;;66.20;34.30;;;;;;;-5.44;100.00;140957.78;107527;1262;25400;-66
2024/01/24 10:34:27;;;;;;;64.90;35.70;;;;;;;-5.37;100.00;140974.09;107495;1263;25413;-64
2024/01/24 10:37:18;;;;;;;68.60;36.60;;;;;;;-5.28;100.00;140995.38;107296;1259;25363;-68
2024/01/24 10:40:11;;;;;;;69.80;37.50;;;;;;;-5.21;100.00;141011.72;107152;1262;22810;-65
2024/01/24 10:43:08;;;;;;;67.90;36.90;;;;;;;-5.07;100.00;141046.33;107852;1259;22524;-65
2024/01/24 10:45:55;;;;;;;58.40;32.30;;;;;;;-4.97;100.00;141070.59;107797;1272;22554;-66
2024/01/24 10:48:53;;;;;;;65.20;33.80;;;;;;;-4.92;100.00;141083.45;107700;1260;23376;-64
2024/01/24 10:51:44;;;;;;;57.00;33.30;;;;;;;-4.89;100.00;141089.14;107590;1256;25531;-64
2024/01/24 10:54:33;;;;;;;65.20;34.60;;;;;;;-4.96;100.00;141073.56;107642;1260;23391;-65
2024/01/24 10:57:19;;;;;;;52.60;30.80;;;;;;;-5.06;100.00;141050.33;108009;1257;25466;-65
2024/01/24 11:00:15;;;;;;;55.50;30.60;;;;;;;-5.06;100.00;141048.33;107594;1257;22790;-64
2024/01/24 11:03:02;;;;;;;52.90;30.00;;;;;;;-5.09;100.00;141041.89;107598;1260;25446;-63
2024/01/24 11:05:55;;;;;;;59.80;30.40;;;;;;;-5.22;100.00;141009.48;107479;1256;25427;-64
2024/01/24 11:08:50;;;;;;;50.60;28.90;;;;;;;-5.43;100.00;140959.02;107677;1260;25487;-64
2024/01/24 11:11:43;;;;;;;51.10;29.80;;;;;;;-5.53;100.00;140937.02;107477;1261;25431;-64
2024/01/24 11:14:34;;;;;;;47.60;28.30;;;;;;;-5.49;100.00;140945.91;107447;1267;25448;-65
2024/01/24 11:17:21;;;;;;;55.60;29.30;;;;;;;-5.46;100.00;140953.59;107791;1259;25348;-64
2024/01/24 11:20:09;;;;;;;51.40;26.50;;;;;;;-5.39;100.00;140969.66;107175;1259;23720;-63
2024/01/24 11:22:55;;;;;;;52.30;30.10;;;;;;;-5.29;100.00;140993.16;108089;1263;22519;-66
2024/01/24 11:25:46;;;;;;;50.10;26.50;;;;;;;-5.26;100.00;141000.83;107862;1260;22330;-65
2024/01/24 11:28:32;;;;;;;44.30;26.30;;;;;;;-5.38;100.00;140970.64;107720;1256;25334;-65
2024/01/24 11:31:36;;;;;;;50.20;26.20;;;;;;;-5.44;100.00;140957.53;107390;1260;25337;-64
2024/01/24 11:34:27;;;;;;;39.60;23.70;;;;;;;-5.43;100.00;140959.52;107267;1259;25243;-64
2024/01/24 11:37:15;;;;;;;50.80;27.70;;;;;;;-5.39;100.00;140967.67;108020;1260;25369;-63
2024/01/24 11:40:08;;;;;;;42.60;25.40;;;;;;;-5.33;100.00;140983.23;107499;1259;22520;-64
2024/01/24 11:42:57;;;;;;;44.10;25.20;;;;;;;-5.33;100.00;140983.50;107202;1260;24039;-67
2024/01/24 11:45:43;;;;;;;44.70;26.40;;;;;;;-5.39;100.00;140969.16;107147;1260;25343;-65
2024/01/24 11:48:34;;;;;;;45.30;26.00;;;;;;;-5.48;100.00;140948.86;107328;1261;22510;-65
2024/01/24 11:51:21;;;;;;;;;;;;;;;-5.53;100.00;140935.28;107361;1261;22512;-64
2024/01/24 11:54:09;;;;;;;42.70;25.70;;;;;;;-5.54;100.00;140933.55;107259;1259;22583;-64
2024/01/24 11:56:57;;;;;;;42.20;24.80;;;;;;;-5.54;100.00;140931.83;107753;1259;22578;-64
2024/01/24 11:59:43;;;;;;;43.80;25.80;;;;;;;-5.56;100.00;140927.86;107694;1260;25328;-64
2024/01/24 12:02:29;;;;;;;52.20;26.30;;;;;;;-5.53;100.00;140935.02;107319;1256;25338;-64
2024/01/24 12:05:16;;;;;;;46.90;26.60;;;;;;;-5.60;100.00;140917.70;107519;1260;23466;-63
2024/01/24 12:08:02;;;;;;;44.00;26.00;;;;;;;-5.65;100.00;140907.31;107376;1256;24238;-64
2024/01/24 12:10:48;;;;;;;40.50;22.20;;;;;;;-5.62;100.00;140914.52;107332;1260;25370;-64
2024/01/24 12:13:36;;;;;;;39.10;23.20;;;;;;;-5.58;100.00;140922.66;107560;1260;23439;-63
2024/01/24 12:16:22;;;;;;;42.20;22.70;;;;;;;-5.53;100.00;140936.27;107374;1263;25382;-66
2024/01/24 12:19:11;;;;;;;41.40;22.30;;;;;;;-5.54;100.00;140932.56;107203;1259;25360;-65
2024/01/24 12:21:59;;;;;;;42.70;22.10;;;;;;;-5.57;100.00;140925.63;107433;1263;25293;-65